This is the latest recevied weather packets stored in our database for station/object N5PRN. If no packets are shown the sender has not sent any weather packets the latest 10 day(s).
| Time | Temp. | Humidity | Pressure | Rain* | Wind** | Luminosity | Snow |
|---|---|---|---|---|---|---|---|
| 1778004084 | 25° C | 84% | 1009.9 hPa | 0 mm | - | 376 W/m² | - |
| 1778003779 | 24.44° C | 85% | 1009.9 hPa | 0 mm | - | 233 W/m² | - |
| 1778003476 | 25° C | 83% | 1010.1 hPa | 0 mm | - | 225 W/m² | - |
| 1778003167 | 25° C | 84% | 1010.4 hPa | 0 mm | - | 248 W/m² | - |
| 1778002863 | 25° C | 83% | 1010.3 hPa | 0 mm | - | 271 W/m² | - |
| 1778002560 | 25° C | 84% | 1010.3 hPa | 0 mm | - | 234 W/m² | - |
| 1778002256 | 24.44° C | 85% | 1010.2 hPa | 0 mm | - | 380 W/m² | - |
| 1778001954 | 23.89° C | 85% | 1010.2 hPa | 0 mm | - | 357 W/m² | - |
| 1778001650 | 23.89° C | 86% | 1010.5 hPa | 0 mm | - | 131 W/m² | - |
| 1778001346 | 23.89° C | 86% | 1010.5 hPa | 0 mm | - | 101 W/m² | - |
| 1778001043 | 23.89° C | 86% | 1010.5 hPa | 0 mm | - | 84 W/m² | - |
| 1778000739 | 23.89° C | 85% | 1010.4 hPa | 0 mm | - | 92 W/m² | - |
| 1778000436 | 23.89° C | 86% | 1010.4 hPa | 0 mm | - | 157 W/m² | - |
| 1778000131 | 23.89° C | 85% | 1010.3 hPa | 0 mm | - | 150 W/m² | - |
| 1777999827 | 23.89° C | 85% | 1010.6 hPa | 0 mm | - | 99 W/m² | - |
| 1777999523 | 24.44° C | 84% | 1010.5 hPa | 0 mm | - | 104 W/m² | - |
| 1777999221 | 23.89° C | 84% | 1010.3 hPa | 0 mm | - | 221 W/m² | - |
| 1777998919 | 23.89° C | 84% | 1010.4 hPa | 0 mm | - | 233 W/m² | - |
| 1777998616 | 23.89° C | 84% | 1010.3 hPa | 0 mm | - | 268 W/m² | - |
| 1777998309 | 23.89° C | 85% | 1010.3 hPa | 0 mm | - | 260 W/m² | - |
| 1777998006 | 23.89° C | 85% | 1010.3 hPa | 0 mm | - | 205 W/m² | - |
| 1777997703 | 23.33° C | 85% | 1010.3 hPa | 0 mm | - | 314 W/m² | - |
| 1777997400 | 23.33° C | 85% | 1010.4 hPa | 0 mm | - | 267 W/m² | - |
| 1777997098 | 23.33° C | 86% | 1010.5 hPa | 0 mm | - | 315 W/m² | - |
| 1777996794 | 22.78° C | 86% | 1010.6 hPa | 0 mm | - | 235 W/m² | - |
* Rain latest hour (hover to see other rain measurements)
** Current wind speed in m/s (hover to see current wind gust speed)